createdAt,value
2022-10-17T00:00:09.238Z,3.41
2022-10-17T00:02:11.407Z,3.33
2022-10-17T00:04:13.458Z,3.33
2022-10-17T00:06:16.147Z,3.36
2022-10-17T00:08:19.529Z,3.28
2022-10-17T00:10:23.103Z,3.36
2022-10-17T00:12:25.239Z,3.32
2022-10-17T00:14:27.371Z,3.35
2022-10-17T00:16:33.710Z,3.32
2022-10-17T00:18:35.733Z,3.26
2022-10-17T00:20:38.016Z,3.20
2022-10-17T00:22:40.159Z,3.31
2022-10-17T00:24:42.288Z,3.08
2022-10-17T00:26:44.342Z,3.24
2022-10-17T00:28:48.261Z,3.22
2022-10-17T00:31:05.615Z,3.17
2022-10-17T00:33:08.039Z,3.09
2022-10-17T00:35:10.805Z,3.18
2022-10-17T00:37:13.041Z,3.18
2022-10-17T00:39:16.016Z,3.10
2022-10-17T00:41:20.019Z,3.09
2022-10-17T00:43:22.187Z,3.16
2022-10-17T00:45:27.884Z,3.17
2022-10-17T00:47:31.021Z,3.15
2022-10-17T00:49:36.128Z,3.19
2022-10-17T00:51:45.408Z,3.18
2022-10-17T00:53:47.578Z,3.22
2022-10-17T00:55:52.893Z,3.20
2022-10-17T00:57:56.625Z,3.25
2022-10-17T01:00:00.901Z,3.23
2022-10-17T01:02:11.705Z,3.13
2022-10-17T01:04:13.744Z,3.20
2022-10-17T01:06:16.036Z,3.24
2022-10-17T01:08:18.375Z,3.20
2022-10-17T01:10:20.872Z,3.22
2022-10-17T01:12:35.454Z,3.23
2022-10-17T01:15:03.026Z,3.22
2022-10-17T01:17:15.192Z,3.19
2022-10-17T01:19:35.953Z,3.18
2022-10-17T01:22:01.586Z,3.13
2022-10-17T01:24:37.319Z,3.14
2022-10-17T01:27:01.088Z,3.10
2022-10-17T01:29:33.424Z,3.07
2022-10-17T01:31:47.924Z,3.02
2022-10-17T01:33:59.126Z,3.03
2022-10-17T01:36:13.000Z,3.01
2022-10-17T01:38:24.048Z,2.92
2022-10-17T01:40:30.308Z,2.93
2022-10-17T01:42:42.741Z,2.88
2022-10-17T01:44:56.202Z,2.87
2022-10-17T01:47:05.670Z,2.82
2022-10-17T01:49:10.653Z,2.81
2022-10-17T01:51:22.525Z,2.74
2022-10-17T01:53:30.370Z,2.76
2022-10-17T01:55:36.479Z,2.74
2022-10-17T01:57:44.043Z,2.71
2022-10-17T01:59:49.891Z,2.69
2022-10-17T02:01:55.693Z,2.67
2022-10-17T02:04:00.312Z,2.64
2022-10-17T02:06:03.513Z,2.62
2022-10-17T02:08:07.263Z,2.59
2022-10-17T02:10:32.372Z,2.60
2022-10-17T02:12:54.248Z,2.55
2022-10-17T02:15:15.234Z,2.53
2022-10-17T02:17:38.435Z,2.48
2022-10-17T02:19:46.347Z,2.46
2022-10-17T02:21:57.615Z,2.43
2022-10-17T02:24:15.542Z,2.39
2022-10-17T02:26:25.039Z,2.41
2022-10-17T02:28:47.402Z,2.39
2022-10-17T02:31:13.877Z,2.36
2022-10-17T02:33:59.907Z,2.40
2022-10-17T02:36:10.256Z,2.35
2022-10-17T02:38:13.531Z,2.37
2022-10-17T02:40:21.211Z,2.29
2022-10-17T02:42:26.341Z,2.32
2022-10-17T02:44:30.848Z,2.38
2022-10-17T02:46:34.643Z,2.39
2022-10-17T02:48:42.637Z,2.40
2022-10-17T02:51:12.945Z,2.39
2022-10-17T02:53:25.369Z,2.37
2022-10-17T02:55:33.550Z,2.40
2022-10-17T02:57:47.614Z,2.46
2022-10-17T02:59:51.264Z,2.49
2022-10-17T03:01:53.819Z,2.50
2022-10-17T03:04:10.112Z,2.45
2022-10-17T03:06:12.206Z,2.51
2022-10-17T03:08:14.515Z,2.51
2022-10-17T03:10:16.536Z,2.49
2022-10-17T03:12:18.709Z,2.45
2022-10-17T03:14:21.235Z,2.44
2022-10-17T03:16:23.235Z,2.35
2022-10-17T03:18:25.482Z,2.33
2022-10-17T03:20:32.940Z,2.38
2022-10-17T03:22:35.062Z,2.24
2022-10-17T03:24:39.059Z,2.31
2022-10-17T03:26:41.106Z,2.25
2022-10-17T03:28:43.282Z,2.22
2022-10-17T03:30:45.407Z,2.15
2022-10-17T03:32:47.624Z,2.12
2022-10-17T03:34:49.791Z,2.08
2022-10-17T03:36:52.586Z,2.06
2022-10-17T03:38:55.955Z,2.09
2022-10-17T03:40:58.495Z,2.07
2022-10-17T03:43:01.410Z,2.10
2022-10-17T03:45:05.297Z,2.00
2022-10-17T03:47:09.327Z,2.06
2022-10-17T03:49:14.783Z,2.07
2022-10-17T03:51:17.564Z,2.12
2022-10-17T03:53:24.987Z,2.13
2022-10-17T03:55:27.133Z,2.18
2022-10-17T03:57:29.327Z,2.24
2022-10-17T03:59:31.395Z,2.26
2022-10-17T04:01:39.034Z,2.25
2022-10-17T04:03:43.526Z,2.23
2022-10-17T04:05:45.637Z,2.27
2022-10-17T04:07:47.901Z,2.29
2022-10-17T04:09:51.984Z,2.31
2022-10-17T04:11:55.884Z,2.28
2022-10-17T04:14:02.280Z,2.37
2022-10-17T04:16:09.015Z,2.37
2022-10-17T04:18:15.774Z,2.43
2022-10-17T04:20:17.892Z,2.51
2022-10-17T04:22:20.024Z,2.56
2022-10-17T04:24:22.280Z,2.65
2022-10-17T04:26:40.619Z,2.60
2022-10-17T04:28:42.844Z,2.75
2022-10-17T04:30:45.620Z,2.71
2022-10-17T04:32:51.595Z,2.85
2022-10-17T04:34:56.549Z,2.97
2022-10-17T04:36:59.111Z,2.98
2022-10-17T04:39:03.730Z,3.13
2022-10-17T04:41:10.474Z,3.19
2022-10-17T04:43:12.602Z,3.24
2022-10-17T04:45:14.895Z,3.25
2022-10-17T04:47:17.653Z,3.40
2022-10-17T04:49:19.923Z,3.47
2022-10-17T04:51:26.613Z,3.45
2022-10-17T04:53:58.406Z,3.48
2022-10-17T04:56:01.373Z,3.56
2022-10-17T04:58:04.248Z,3.64
2022-10-17T05:02:36.771Z,3.74
2022-10-17T05:04:39.412Z,3.82
2022-10-17T05:06:42.364Z,3.81
2022-10-17T05:09:12.032Z,3.85
2022-10-17T05:11:32.596Z,4.01
2022-10-17T05:13:34.656Z,4.01
2022-10-17T05:15:37.630Z,4.01
2022-10-17T05:17:39.657Z,4.12
2022-10-17T05:19:42.320Z,4.13
2022-10-17T05:21:44.787Z,4.18
2022-10-17T05:23:47.014Z,4.39
2022-10-17T05:25:54.986Z,4.41
2022-10-17T05:27:59.226Z,4.51
2022-10-17T05:30:01.878Z,4.62
2022-10-17T05:32:08.517Z,4.66
2022-10-17T05:34:13.168Z,4.68
2022-10-17T05:36:16.521Z,4.69
2022-10-17T05:38:18.949Z,4.69
2022-10-17T05:40:22.608Z,4.81
2022-10-17T05:42:27.847Z,4.93
2022-10-17T05:44:31.379Z,5.09
2022-10-17T05:46:35.353Z,5.21
2022-10-17T05:48:37.455Z,5.41
2022-10-17T05:50:40.120Z,5.54
2022-10-17T05:52:47.351Z,5.65
2022-10-17T05:54:51.444Z,5.76
2022-10-17T05:56:55.403Z,5.86
2022-10-17T05:59:01.618Z,5.91
2022-10-17T06:01:33.102Z,5.94
2022-10-17T06:03:35.433Z,6.06
2022-10-17T06:05:40.491Z,6.13
2022-10-17T06:07:42.725Z,6.14
2022-10-17T06:11:47.743Z,6.15
2022-10-17T06:13:50.501Z,6.10
2022-10-17T06:15:58.136Z,6.09
2022-10-17T06:18:00.299Z,6.12
2022-10-17T06:20:02.584Z,6.11
2022-10-17T06:22:05.031Z,6.11
2022-10-17T06:24:09.737Z,6.08
2022-10-17T06:26:14.907Z,6.06
2022-10-17T06:28:17.091Z,6.13
2022-10-17T06:30:19.617Z,6.13
2022-10-17T06:32:21.643Z,6.17
2022-10-17T06:34:23.801Z,6.20
2022-10-17T06:36:26.019Z,6.20
2022-10-17T06:38:28.344Z,6.26
2022-10-17T06:40:32.777Z,6.26
2022-10-17T06:42:35.019Z,6.31
2022-10-17T06:45:00.282Z,6.32
2022-10-17T06:47:19.237Z,6.31
2022-10-17T06:49:23.176Z,6.32
2022-10-17T06:51:25.133Z,6.47
2022-10-17T06:53:32.345Z,6.58
2022-10-17T06:56:03.253Z,6.76
2022-10-17T06:58:16.885Z,6.90
2022-10-17T07:00:39.256Z,7.03
2022-10-17T07:02:42.757Z,7.07
2022-10-17T07:04:47.287Z,7.10
2022-10-17T07:06:49.816Z,7.09
2022-10-17T07:08:59.048Z,7.10
2022-10-17T07:11:12.119Z,7.02
2022-10-17T07:13:19.351Z,6.87
2022-10-17T07:16:11.467Z,6.82
2022-10-17T07:18:26.441Z,7.18
2022-10-17T07:20:29.050Z,7.25
2022-10-17T07:22:31.734Z,7.25
2022-10-17T07:24:34.444Z,7.14
2022-10-17T07:27:00.641Z,7.10
2022-10-17T07:29:02.778Z,7.15
2022-10-17T07:31:20.212Z,6.97
2022-10-17T07:33:22.492Z,7.12
2022-10-17T07:35:25.442Z,7.20
2022-10-17T07:37:29.566Z,7.26
2022-10-17T07:39:32.306Z,7.36
2022-10-17T07:41:34.320Z,7.39
2022-10-17T07:43:37.193Z,7.40
2022-10-17T07:45:44.747Z,7.26
2022-10-17T07:47:47.352Z,7.32
2022-10-17T07:49:58.473Z,7.17
2022-10-17T07:52:00.572Z,7.22
2022-10-17T07:54:04.847Z,7.18
2022-10-17T07:56:09.323Z,7.13
2022-10-17T07:58:15.527Z,7.16
2022-10-17T08:00:23.259Z,7.23
2022-10-17T08:02:28.157Z,7.21
2022-10-17T08:04:31.336Z,7.15
2022-10-17T08:06:36.493Z,7.10
2022-10-17T08:08:44.565Z,7.07
2022-10-17T08:10:47.195Z,6.93
2022-10-17T08:12:51.806Z,7.07
2022-10-17T08:14:54.517Z,7.07
2022-10-17T08:16:59.836Z,7.08
2022-10-17T08:19:02.530Z,7.09
2022-10-17T08:21:08.843Z,7.20
2022-10-17T08:23:11.219Z,7.24
2022-10-17T08:25:13.336Z,7.26
2022-10-17T08:27:21.503Z,7.26
2022-10-17T08:29:23.609Z,7.05
2022-10-17T08:31:25.853Z,7.09
2022-10-17T08:33:28.648Z,7.14
2022-10-17T08:35:30.653Z,7.20
2022-10-17T08:37:33.203Z,7.13
2022-10-17T08:39:35.859Z,7.25
2022-10-17T08:42:02.753Z,7.25
2022-10-17T08:44:25.977Z,7.20
2022-10-17T08:46:39.135Z,7.10
2022-10-17T08:48:47.764Z,7.09
2022-10-17T08:51:04.924Z,7.00
2022-10-17T08:53:16.075Z,6.95
2022-10-17T08:55:33.088Z,6.84
2022-10-17T08:57:35.454Z,6.81
2022-10-17T08:59:38.363Z,6.72
2022-10-17T09:01:50.344Z,6.78
2022-10-17T09:04:12.172Z,6.72
2022-10-17T09:06:37.130Z,6.72
2022-10-17T09:08:54.320Z,6.60
2022-10-17T09:11:03.788Z,6.47
2022-10-17T09:13:53.691Z,6.54
2022-10-17T09:16:13.906Z,6.33
2022-10-17T09:18:25.041Z,6.34
2022-10-17T09:21:00.418Z,6.19
2022-10-17T09:23:16.443Z,6.02
2022-10-17T09:25:21.899Z,5.94
2022-10-17T09:27:37.654Z,5.93
2022-10-17T09:29:43.706Z,5.92
2022-10-17T09:31:53.727Z,5.99
2022-10-17T09:33:57.945Z,6.00
2022-10-17T09:36:05.031Z,5.90
2022-10-17T09:38:13.878Z,5.93
2022-10-17T09:40:32.516Z,6.02
2022-10-17T09:42:36.923Z,5.92
2022-10-17T09:44:49.581Z,6.05
2022-10-17T09:46:55.227Z,6.09
2022-10-17T09:49:05.270Z,6.16
2022-10-17T09:51:25.030Z,6.13
2022-10-17T09:53:34.484Z,6.19
2022-10-17T09:55:48.478Z,6.18
2022-10-17T09:57:59.062Z,6.06
2022-10-17T10:00:05.730Z,6.05
2022-10-17T10:02:22.187Z,5.96
2022-10-17T10:04:30.203Z,6.05
2022-10-17T10:06:37.935Z,6.13
2022-10-17T10:08:55.089Z,6.15
2022-10-17T10:11:05.869Z,6.28
2022-10-17T10:13:20.755Z,6.32
2022-10-17T10:15:39.038Z,6.42
2022-10-17T10:17:43.058Z,6.50
2022-10-17T10:19:51.243Z,6.56
2022-10-17T10:22:01.760Z,6.56
2022-10-17T10:24:13.401Z,6.58
2022-10-17T10:26:32.732Z,6.67
2022-10-17T10:28:37.468Z,6.64
2022-10-17T10:30:42.514Z,6.61
2022-10-17T10:32:50.919Z,6.61
2022-10-17T10:34:55.166Z,6.64
2022-10-17T10:37:23.101Z,6.67
2022-10-17T10:39:47.961Z,6.55
2022-10-17T10:41:50.167Z,6.63
2022-10-17T10:43:54.855Z,6.58
2022-10-17T10:45:57.175Z,6.49
2022-10-17T10:48:03.777Z,6.59
2022-10-17T10:50:20.910Z,6.50
2022-10-17T10:52:42.715Z,6.54
2022-10-17T10:54:54.024Z,6.53
2022-10-17T10:57:03.707Z,6.56
2022-10-17T10:59:08.891Z,6.55
2022-10-17T11:01:29.390Z,6.56
2022-10-17T11:03:46.388Z,6.52
2022-10-17T11:05:55.163Z,6.53
2022-10-17T11:08:30.222Z,6.64
2022-10-17T11:10:44.578Z,6.61
2022-10-17T11:12:55.152Z,6.57
2022-10-17T11:15:09.671Z,6.67
2022-10-17T11:17:23.488Z,6.67
2022-10-17T11:19:37.042Z,6.67
2022-10-17T11:22:26.585Z,6.68
2022-10-17T11:24:48.048Z,6.70
2022-10-17T11:26:56.929Z,6.64
2022-10-17T11:29:06.911Z,6.61
2022-10-17T11:31:16.125Z,6.59
2022-10-17T11:33:28.655Z,6.61
2022-10-17T11:35:46.217Z,6.64
2022-10-17T11:38:25.515Z,6.57
2022-10-17T11:40:32.147Z,6.58
2022-10-17T11:42:45.870Z,6.60
2022-10-17T11:44:52.739Z,6.50
2022-10-17T11:47:02.590Z,6.61
2022-10-17T11:49:38.244Z,6.58
2022-10-17T11:52:04.373Z,6.41
2022-10-17T11:54:18.692Z,6.57
2022-10-17T11:56:32.135Z,6.55
2022-10-17T11:58:47.116Z,6.54
2022-10-17T12:00:55.407Z,6.65
2022-10-17T12:03:23.452Z,6.69
2022-10-17T12:05:34.599Z,6.56
2022-10-17T12:07:47.360Z,6.64
2022-10-17T12:10:04.971Z,6.65
2022-10-17T12:12:07.399Z,6.49
2022-10-17T12:14:41.638Z,6.57
2022-10-17T12:16:45.931Z,6.49
2022-10-17T12:19:10.756Z,6.60
2022-10-17T12:21:13.047Z,6.58
2022-10-17T12:23:29.156Z,6.68
2022-10-17T12:25:34.675Z,6.62
2022-10-17T12:27:50.375Z,6.55
2022-10-17T12:30:06.400Z,6.55
2022-10-17T12:32:16.988Z,6.64
2022-10-17T12:34:22.575Z,6.70
2022-10-17T12:36:30.576Z,6.71
2022-10-17T12:38:33.539Z,6.63
2022-10-17T12:40:35.606Z,6.73
2022-10-17T12:42:47.933Z,6.71
2022-10-17T12:44:51.195Z,6.68
2022-10-17T12:47:37.953Z,6.70
2022-10-17T12:49:53.110Z,6.68
2022-10-17T12:52:27.967Z,6.71
2022-10-17T12:54:46.979Z,6.65
2022-10-17T12:56:57.982Z,6.65
2022-10-17T12:59:18.162Z,6.68
2022-10-17T13:01:33.894Z,6.39
2022-10-17T13:03:44.729Z,6.65
2022-10-17T13:05:54.954Z,6.72
2022-10-17T13:08:00.115Z,6.65
2022-10-17T13:10:05.332Z,6.70
2022-10-17T13:12:15.027Z,6.68
2022-10-17T13:14:20.640Z,6.72
2022-10-17T13:16:34.870Z,6.67
2022-10-17T13:18:37.135Z,6.67
2022-10-17T13:20:41.806Z,6.72
2022-10-17T13:22:48.837Z,6.76
2022-10-17T13:24:52.658Z,6.77
2022-10-17T13:26:55.629Z,6.76
2022-10-17T13:29:18.086Z,6.73
2022-10-17T13:31:35.849Z,6.71
2022-10-17T13:33:40.204Z,6.61
2022-10-17T13:35:59.820Z,6.62
2022-10-17T13:38:07.760Z,6.69
2022-10-17T13:42:49.089Z,6.72
2022-10-17T13:44:52.230Z,6.81
2022-10-17T13:47:00.049Z,6.65
2022-10-17T13:49:23.233Z,6.52
2022-10-17T13:51:34.522Z,6.77
2022-10-17T13:53:44.547Z,6.73
2022-10-17T13:56:34.461Z,6.72
2022-10-17T13:58:43.039Z,6.80
2022-10-17T14:00:46.035Z,6.79
2022-10-17T14:02:48.583Z,6.72
2022-10-17T14:05:16.756Z,6.82
2022-10-17T14:08:09.250Z,6.68
2022-10-17T14:10:17.486Z,6.80
2022-10-17T14:12:25.493Z,6.69
2022-10-17T14:14:32.129Z,6.82
2022-10-17T14:16:46.961Z,6.79
2022-10-17T14:18:50.921Z,6.40
2022-10-17T14:23:37.224Z,6.84
2022-10-17T14:25:42.389Z,6.71
2022-10-17T14:28:02.392Z,6.81
2022-10-17T14:30:51.606Z,6.78
2022-10-17T14:32:48.075Z,6.73
2022-10-17T14:35:05.629Z,6.61
2022-10-17T14:37:43.982Z,6.64
2022-10-17T14:39:50.730Z,6.58
2022-10-17T14:41:53.761Z,6.48
2022-10-17T14:44:00.314Z,6.38
2022-10-17T14:46:03.425Z,6.32
2022-10-17T14:48:17.603Z,6.36
2022-10-17T14:50:28.421Z,6.16
2022-10-17T14:52:32.654Z,6.28
2022-10-17T14:54:36.171Z,6.34
2022-10-17T14:56:50.798Z,6.38
2022-10-17T14:58:53.226Z,6.35
2022-10-17T15:00:59.119Z,6.38
2022-10-17T15:03:01.402Z,6.47
2022-10-17T15:05:08.360Z,6.50
2022-10-17T15:07:16.714Z,6.54
2022-10-17T15:09:19.170Z,6.51
2022-10-17T15:11:21.249Z,6.59
2022-10-17T15:13:28.302Z,6.54
2022-10-17T15:15:32.617Z,6.65
2022-10-17T15:17:35.399Z,6.70
2022-10-17T15:19:37.905Z,6.72
2022-10-17T15:21:47.540Z,6.51
2022-10-17T15:23:53.214Z,6.71
2022-10-17T15:25:55.899Z,6.69
2022-10-17T15:27:58.120Z,6.78
2022-10-17T15:30:00.673Z,6.78
2022-10-17T15:32:02.912Z,6.80
2022-10-17T15:34:05.374Z,6.76
2022-10-17T15:36:26.391Z,6.78
2022-10-17T15:38:28.840Z,6.65
2022-10-17T15:40:31.218Z,6.72
2022-10-17T15:42:33.322Z,6.81
2022-10-17T15:44:36.844Z,6.75
2022-10-17T15:46:41.256Z,6.77
2022-10-17T15:48:46.077Z,6.80
2022-10-17T15:50:48.417Z,6.87
2022-10-17T15:52:51.241Z,6.91
2022-10-17T15:54:54.568Z,6.88
2022-10-17T15:56:59.804Z,6.92
2022-10-17T15:59:25.712Z,6.92
2022-10-17T16:01:31.273Z,6.81
2022-10-17T16:03:34.286Z,6.79
2022-10-17T16:05:36.623Z,7.01
2022-10-17T16:07:38.846Z,7.03
2022-10-17T16:09:41.542Z,7.03
2022-10-17T16:11:44.813Z,6.95
2022-10-17T16:13:53.853Z,6.94
2022-10-17T16:15:59.099Z,6.94
2022-10-17T16:18:04.242Z,7.06
2022-10-17T16:20:13.718Z,7.10
2022-10-17T16:22:33.574Z,7.05
2022-10-17T16:24:37.042Z,6.94
2022-10-17T16:26:43.010Z,7.02
2022-10-17T16:28:46.516Z,6.95
2022-10-17T16:30:49.485Z,7.18
2022-10-17T16:32:52.449Z,7.17
2022-10-17T16:34:58.398Z,7.16
2022-10-17T16:37:00.769Z,7.17
2022-10-17T16:39:02.853Z,7.24
2022-10-17T16:41:05.890Z,7.13
2022-10-17T16:43:12.614Z,7.15
2022-10-17T16:45:25.560Z,7.22
2022-10-17T16:47:33.764Z,7.23
2022-10-17T16:49:39.267Z,7.28
2022-10-17T16:51:47.966Z,7.34
2022-10-17T16:53:53.094Z,7.37
2022-10-17T16:56:03.390Z,7.42
2022-10-17T16:58:05.750Z,7.37
2022-10-17T17:00:08.579Z,7.39
2022-10-17T17:02:12.169Z,7.47
2022-10-17T17:04:15.466Z,7.35
2022-10-17T17:06:26.774Z,7.49
2022-10-17T17:08:29.134Z,7.39
2022-10-17T17:10:31.590Z,7.50
2022-10-17T17:12:36.103Z,7.29
2022-10-17T17:14:38.859Z,7.46
2022-10-17T17:16:43.774Z,7.50
2022-10-17T17:18:46.460Z,7.54
2022-10-17T17:20:49.033Z,7.53
2022-10-17T17:22:52.537Z,7.49
2022-10-17T17:24:54.660Z,7.55
2022-10-17T17:26:57.593Z,7.57
2022-10-17T17:29:02.734Z,7.59
2022-10-17T17:31:12.346Z,7.65
2022-10-17T17:33:15.239Z,7.59
2022-10-17T17:35:19.358Z,7.59
2022-10-17T17:37:21.513Z,7.60
2022-10-17T17:39:24.730Z,7.52
2022-10-17T17:41:31.025Z,7.54
2022-10-17T17:43:33.745Z,7.48
2022-10-17T17:45:36.391Z,7.52
2022-10-17T17:47:38.550Z,7.46
2022-10-17T17:49:40.743Z,7.49
2022-10-17T17:51:48.249Z,7.43
2022-10-17T17:53:53.476Z,7.20
2022-10-17T17:56:07.952Z,7.08
2022-10-17T17:58:12.593Z,7.15
2022-10-17T18:00:15.420Z,7.25
2022-10-17T18:02:18.814Z,7.15
2022-10-17T18:04:21.566Z,7.13
2022-10-17T18:06:27.419Z,7.08
2022-10-17T18:08:32.898Z,7.10
2022-10-17T18:10:35.889Z,7.10
2022-10-17T18:12:38.364Z,7.05
2022-10-17T18:14:50.008Z,7.12
2022-10-17T18:16:52.276Z,6.81
2022-10-17T18:18:54.578Z,7.02
2022-10-17T18:20:57.211Z,7.13
2022-10-17T18:23:01.982Z,7.13
2022-10-17T18:25:07.077Z,7.12
2022-10-17T18:27:09.666Z,7.02
2022-10-17T18:29:12.964Z,7.01
2022-10-17T18:31:24.388Z,6.96
2022-10-17T18:33:26.712Z,6.96
2022-10-17T18:35:31.637Z,7.04
2022-10-17T18:37:33.889Z,7.08
2022-10-17T18:39:36.212Z,7.11
2022-10-17T18:41:38.310Z,7.14
2022-10-17T18:43:42.179Z,7.10
2022-10-17T18:45:44.460Z,7.21
2022-10-17T18:47:47.518Z,7.14
2022-10-17T18:49:49.747Z,7.27
2022-10-17T18:51:52.177Z,7.17
2022-10-17T18:53:58.852Z,7.28
2022-10-17T18:56:03.453Z,7.36
2022-10-17T18:58:05.699Z,7.40
2022-10-17T19:00:08.566Z,7.41
2022-10-17T19:02:13.301Z,7.34
2022-10-17T19:04:15.879Z,7.27
2022-10-17T19:06:21.834Z,7.18
2022-10-17T19:08:26.901Z,7.13
2022-10-17T19:10:29.211Z,7.08
2022-10-17T19:12:31.883Z,7.02
2022-10-17T19:14:40.014Z,6.75
2022-10-17T19:16:45.730Z,6.75
2022-10-17T19:18:52.489Z,6.80
2022-10-17T19:20:54.869Z,6.82
2022-10-17T19:22:59.754Z,6.79
2022-10-17T19:25:01.920Z,6.73
2022-10-17T19:27:06.988Z,6.60
2022-10-17T19:29:12.685Z,6.60
2022-10-17T19:31:20.800Z,6.45
2022-10-17T19:33:31.556Z,6.38
2022-10-17T19:35:34.974Z,6.18
2022-10-17T19:37:37.893Z,6.30
2022-10-17T19:39:40.604Z,6.22
2022-10-17T19:41:44.973Z,6.23
2022-10-17T19:43:49.993Z,6.24
2022-10-17T19:45:57.832Z,6.15
2022-10-17T19:48:01.557Z,6.19
2022-10-17T19:50:04.824Z,6.13
2022-10-17T19:52:07.291Z,6.17
2022-10-17T19:54:10.087Z,6.09
2022-10-17T19:56:18.643Z,6.21
2022-10-17T19:58:20.857Z,6.07
2022-10-17T20:00:23.161Z,6.14
2022-10-17T20:02:25.232Z,6.24
2022-10-17T20:04:27.717Z,6.20
2022-10-17T20:06:29.963Z,6.29
2022-10-17T20:08:32.234Z,6.26
2022-10-17T20:10:35.252Z,6.24
2022-10-17T20:12:37.207Z,6.18
2022-10-17T20:14:41.105Z,6.11
2022-10-17T20:16:50.279Z,6.07
2022-10-17T20:18:54.859Z,6.12
2022-10-17T20:21:06.596Z,5.95
2022-10-17T20:23:08.706Z,6.05
2022-10-17T20:25:11.017Z,6.04
2022-10-17T20:27:17.228Z,6.08
2022-10-17T20:29:23.322Z,6.07
2022-10-17T20:31:25.908Z,6.08
2022-10-17T20:33:31.833Z,6.09
2022-10-17T20:35:34.304Z,5.77
2022-10-17T20:37:41.705Z,6.09
2022-10-17T20:39:51.812Z,6.13
2022-10-17T20:41:58.101Z,6.10
2022-10-17T20:44:00.301Z,6.21
2022-10-17T20:46:15.540Z,6.27
2022-10-17T20:48:25.064Z,6.33
2022-10-17T20:50:27.121Z,6.42
2022-10-17T20:52:29.204Z,6.39
2022-10-17T20:54:31.566Z,6.48
2022-10-17T20:56:34.932Z,6.60
2022-10-17T20:58:37.435Z,6.64
2022-10-17T21:00:40.233Z,6.63
2022-10-17T21:02:42.337Z,6.50
2022-10-17T21:04:47.044Z,6.60
2022-10-17T21:06:51.469Z,6.57
2022-10-17T21:08:55.252Z,6.50
2022-10-17T21:11:08.588Z,6.30
2022-10-17T21:13:10.802Z,6.37
2022-10-17T21:15:19.071Z,6.19
2022-10-17T21:17:21.765Z,6.20
2022-10-17T21:19:23.938Z,6.12
2022-10-17T21:21:34.807Z,6.04
2022-10-17T21:23:37.532Z,5.98
2022-10-17T21:25:40.794Z,5.92
2022-10-17T21:27:45.959Z,5.86
2022-10-17T21:29:48.946Z,5.88
2022-10-17T21:31:51.886Z,5.83
2022-10-17T21:33:56.900Z,5.79
2022-10-17T21:35:59.030Z,5.75
2022-10-17T21:38:01.117Z,5.66
2022-10-17T21:40:04.081Z,5.65
2022-10-17T21:42:06.237Z,5.57
2022-10-17T21:44:13.667Z,5.30
2022-10-17T21:46:18.189Z,5.48
2022-10-17T21:48:20.343Z,5.49
2022-10-17T21:50:22.493Z,5.51
2022-10-17T21:52:24.633Z,5.49
2022-10-17T21:54:26.806Z,5.52
2022-10-17T21:56:30.822Z,5.52
2022-10-17T21:58:35.942Z,5.56
2022-10-17T22:00:38.066Z,5.61
2022-10-17T22:02:40.195Z,5.59
2022-10-17T22:04:42.213Z,5.69
2022-10-17T22:06:46.387Z,5.71
2022-10-17T22:08:48.994Z,5.58
2022-10-17T22:10:51.124Z,5.69
2022-10-17T22:12:53.247Z,5.64
2022-10-17T22:14:55.358Z,5.57
2022-10-17T22:16:57.529Z,5.45
2022-10-17T22:19:04.934Z,5.49
2022-10-17T22:21:11.772Z,5.46
2022-10-17T22:23:14.011Z,5.39
2022-10-17T22:25:16.279Z,5.26
2022-10-17T22:27:18.404Z,5.37
2022-10-17T22:29:21.267Z,5.28
2022-10-17T22:31:23.817Z,5.30
2022-10-17T22:33:26.093Z,5.24
2022-10-17T22:35:28.183Z,5.19
2022-10-17T22:37:30.605Z,5.09
2022-10-17T22:39:32.877Z,5.12
2022-10-17T22:41:34.957Z,5.05
2022-10-17T22:43:37.082Z,5.05
2022-10-17T22:45:40.293Z,5.03
2022-10-17T22:47:42.628Z,5.09
2022-10-17T22:49:44.644Z,5.15
2022-10-17T22:51:47.229Z,5.16
2022-10-17T22:53:49.748Z,5.17
2022-10-17T22:55:58.898Z,5.18
2022-10-17T22:58:01.037Z,5.22
2022-10-17T23:00:04.969Z,5.31
2022-10-17T23:02:07.290Z,5.40
2022-10-17T23:04:09.451Z,5.39
2022-10-17T23:06:12.330Z,5.38
2022-10-17T23:08:15.588Z,5.41
2022-10-17T23:10:18.191Z,5.56
2022-10-17T23:12:20.290Z,5.59
2022-10-17T23:14:22.415Z,5.51
2022-10-17T23:16:27.223Z,5.54
2022-10-17T23:20:32.023Z,5.61
2022-10-17T23:22:34.053Z,5.53
2022-10-17T23:24:36.871Z,5.60
2022-10-17T23:26:39.244Z,5.54
2022-10-17T23:28:42.692Z,5.56
2022-10-17T23:30:45.061Z,5.53
2022-10-17T23:32:47.469Z,5.45
2022-10-17T23:34:49.760Z,5.39
2022-10-17T23:36:54.719Z,5.36
2022-10-17T23:38:58.610Z,5.35
2022-10-17T23:41:03.814Z,5.41
2022-10-17T23:43:06.666Z,5.38
2022-10-17T23:45:09.633Z,5.36
2022-10-17T23:47:11.696Z,5.36
2022-10-17T23:49:13.844Z,5.34
2022-10-17T23:51:16.152Z,5.20
2022-10-17T23:53:18.127Z,5.22
2022-10-17T23:55:20.289Z,5.12
2022-10-17T23:57:22.597Z,5.09
2022-10-17T23:59:25.051Z,5.09
